UMMS 160930Z 33008G12MPS 300V010 CAVOK 13/M01 Q1016 TEMPO 32010G15MPS
QNH:(hPa/inHg/mmHg)1016 / 30 / 762
QFE:(hPa/inHg/mmHg)991 / 29.26 / 743
Temperature13
Dew Point-1
Visibility> 10000
WeatherCAVOK
Cloud Cover
Transition Altitude6000 ft.
Transition LevelFL70
SQUAWK